Time;durP1;ratioP1;P1;durP2;ratioP2;P2;SDS_P1;SDS_P2;PMS_P1;PMS_P2;Temp;Humidity;BMP_temperature;BMP_pressure;BME280_temperature;BME280_humidity;BME280_pressure;Samples;Min_cycle;Max_cycle;Signal;HPM_P1;HPM_P2
2023/09/16 00:02:23;;;;;;;7.97;5.07;;;21.00;97.90;;;;;;4971048;28;20029;-66
2023/09/16 00:04:51;;;;;;;7.15;5.25;;;21.00;97.90;;;;;;4972180;28;20428;-73
2023/09/16 00:07:17;;;;;;;6.57;4.85;;;21.00;98.00;;;;;;4971871;28;20035;-68
2023/09/16 00:09:42;;;;;;;7.95;5.82;;;20.90;98.00;;;;;;4970549;28;20077;-67
2023/09/16 00:12:08;;;;;;;6.85;5.38;;;21.00;98.10;;;;;;4973745;28;20266;-75
2023/09/16 00:14:33;;;;;;;7.30;5.70;;;21.00;98.00;;;;;;4973612;28;20480;-67
2023/09/16 00:17:02;;;;;;;8.68;5.30;;;20.90;98.10;;;;;;4974438;28;20448;-65
2023/09/16 00:19:28;;;;;;;8.43;5.80;;;21.00;98.00;;;;;;4973458;28;20022;-67
2023/09/16 00:21:54;;;;;;;8.05;5.30;;;21.00;98.00;;;;;;4973891;28;20035;-65
2023/09/16 00:24:20;;;;;;;7.00;5.85;;;20.90;98.10;;;;;;4970054;28;20027;-71
2023/09/16 00:26:46;;;;;;;7.25;5.43;;;20.90;98.00;;;;;;4966434;28;20035;-66
2023/09/16 00:29:11;;;;;;;7.10;5.50;;;20.90;98.00;;;;;;4971330;28;20027;-69
2023/09/16 00:31:37;;;;;;;6.47;5.07;;;20.90;98.00;;;;;;4970329;28;20396;-66
2023/09/16 00:34:03;;;;;;;6.95;5.53;;;20.90;98.00;;;;;;4972500;28;20035;-66
2023/09/16 00:36:29;;;;;;;8.40;5.72;;;20.90;98.00;;;;;;4990354;28;20076;-66
2023/09/16 00:38:54;;;;;;;9.25;4.90;;;20.90;98.00;;;;;;4993048;28;20027;-75
2023/09/16 00:41:20;;;;;;;8.70;5.10;;;20.90;98.10;;;;;;4993720;28;20097;-74
2023/09/16 00:43:46;;;;;;;6.30;4.82;;;20.90;98.10;;;;;;4993273;28;20526;-75
2023/09/16 00:46:11;;;;;;;6.47;5.07;;;21.00;98.10;;;;;;4993595;28;20023;-76
2023/09/16 00:48:38;;;;;;;8.38;5.15;;;20.90;98.20;;;;;;4992103;28;20121;-66
2023/09/16 00:51:06;;;;;;;8.15;5.35;;;20.90;98.20;;;;;;4993553;28;20522;-75
2023/09/16 00:53:32;;;;;;;5.60;4.53;;;20.90;98.20;;;;;;4993393;28;20427;-67
2023/09/16 00:55:58;;;;;;;7.63;5.20;;;20.90;98.20;;;;;;4993646;28;20019;-67
2023/09/16 00:58:24;;;;;;;6.25;4.47;;;20.90;98.20;;;;;;4993400;28;20487;-76
2023/09/16 01:00:50;;;;;;;7.40;5.57;;;20.90;98.20;;;;;;4993307;28;20431;-66
2023/09/16 01:03:17;;;;;;;6.72;4.88;;;20.90;98.30;;;;;;4993830;28;20030;-69
2023/09/16 01:05:47;;;;;;;9.65;5.45;;;20.90;98.30;;;;;;4993332;28;20022;-75
2023/09/16 01:08:13;;;;;;;6.85;5.05;;;20.90;98.30;;;;;;4993563;28;20125;-76
2023/09/16 01:10:41;;;;;;;7.25;5.03;;;20.90;98.30;;;;;;4993112;28;20101;-76
2023/09/16 01:13:08;;;;;;;9.45;5.43;;;20.90;98.30;;;;;;4993379;28;20100;-76
2023/09/16 01:15:40;;;;;;;6.45;5.05;;;20.80;98.30;;;;;;4993313;28;20019;-68
2023/09/16 01:18:31;;;;;;;8.18;5.30;;;20.80;98.40;;;;;;4996960;28;20027;-66
2023/09/16 01:20:59;;;;;;;5.70;4.72;;;20.90;98.40;;;;;;4997067;28;20034;-75
2023/09/16 01:23:24;;;;;;;5.97;4.97;;;20.80;98.40;;;;;;4997143;28;20026;-69
2023/09/16 01:25:50;;;;;;;5.70;4.93;;;20.80;98.50;;;;;;4996631;28;20030;-67
2023/09/16 01:28:16;;;;;;;8.95;4.95;;;20.80;98.50;;;;;;4996914;28;20105;-67
2023/09/16 01:30:47;;;;;;;5.43;4.85;;;20.80;98.50;;;;;;4996971;28;20383;-73
2023/09/16 01:33:18;;;;;;;7.17;4.97;;;20.80;98.50;;;;;;4997151;28;20077;-67
2023/09/16 01:35:47;;;;;;;6.63;5.15;;;20.70;98.50;;;;;;4996799;28;20026;-70
2023/09/16 01:38:15;;;;;;;8.35;5.10;;;20.70;98.60;;;;;;4996848;28;20511;-66
2023/09/16 01:40:43;;;;;;;7.55;5.43;;;20.70;98.60;;;;;;4996459;28;20030;-67
2023/09/16 01:43:09;;;;;;;6.95;5.20;;;20.70;98.60;;;;;;4996727;28;20169;-76
2023/09/16 01:45:45;;;;;;;7.25;4.85;;;20.70;98.70;;;;;;4996565;28;20537;-66
2023/09/16 01:48:11;;;;;;;6.75;6.05;;;20.60;98.70;;;;;;4996797;28;20128;-75
2023/09/16 01:50:37;;;;;;;7.32;5.97;;;20.60;98.70;;;;;;4996483;28;20113;-74
2023/09/16 01:53:06;;;;;;;8.27;5.65;;;20.60;98.80;;;;;;4996564;28;20057;-75
2023/09/16 01:55:32;;;;;;;7.40;5.38;;;20.60;98.80;;;;;;4996395;28;20030;-75
2023/09/16 01:57:58;;;;;;;8.57;5.95;;;20.60;98.80;;;;;;4996547;28;20023;-68
2023/09/16 02:00:24;;;;;;;8.93;5.95;;;20.60;98.80;;;;;;4996473;28;20026;-73
2023/09/16 02:02:49;;;;;;;10.15;6.32;;;20.50;98.90;;;;;;4996361;28;20027;-73
2023/09/16 02:05:16;;;;;;;8.15;6.60;;;20.50;98.90;;;;;;4996332;28;20022;-66
2023/09/16 02:07:42;;;;;;;6.72;5.75;;;20.50;98.90;;;;;;4996219;28;20034;-66
2023/09/16 02:10:08;;;;;;;6.78;6.07;;;20.50;98.90;;;;;;4996027;28;20029;-75
2023/09/16 02:12:36;;;;;;;7.53;6.38;;;20.50;99.00;;;;;;4996309;28;20075;-65
2023/09/16 02:15:04;;;;;;;6.28;5.68;;;20.40;99.10;;;;;;4996193;28;20105;-67
2023/09/16 02:17:30;;;;;;;7.88;6.80;;;20.40;99.10;;;;;;4996089;28;20444;-75
2023/09/16 02:19:55;;;;;;;7.22;6.50;;;20.40;99.20;;;;;;4995825;28;20514;-66
2023/09/16 02:22:21;;;;;;;10.50;6.88;;;20.40;99.20;;;;;;4995996;28;20042;-65
2023/09/16 02:24:48;;;;;;;10.05;7.00;;;20.30;99.20;;;;;;4995774;28;20023;-74
2023/09/16 02:27:13;;;;;;;8.32;7.13;;;20.40;99.20;;;;;;4995440;28;20042;-75
2023/09/16 02:29:39;;;;;;;7.80;7.00;;;20.30;99.20;;;;;;4982770;28;20023;-66
2023/09/16 02:32:05;;;;;;;9.35;7.13;;;20.30;99.20;;;;;;4975599;28;20026;-66
2023/09/16 02:34:32;;;;;;;8.85;7.15;;;20.30;99.20;;;;;;4975975;28;20495;-65
2023/09/16 02:36:59;;;;;;;8.57;6.65;;;20.30;99.20;;;;;;4976099;28;20165;-66
2023/09/16 02:39:25;;;;;;;9.00;6.50;;;20.30;99.20;;;;;;4976344;28;20015;-67
2023/09/16 02:41:50;;;;;;;8.98;7.22;;;20.30;99.20;;;;;;4976286;28;20023;-67
2023/09/16 02:44:16;;;;;;;8.50;7.55;;;20.20;99.20;;;;;;4976347;28;20390;-73
2023/09/16 02:46:42;;;;;;;9.55;8.07;;;20.20;99.20;;;;;;4990998;28;20062;-75
2023/09/16 02:49:07;;;;;;;10.52;7.03;;;20.20;99.50;;;;;;4976051;28;20022;-66
2023/09/16 02:51:33;;;;;;;9.63;7.40;;;20.20;99.30;;;;;;4976325;28;20026;-66
2023/09/16 02:54:00;;;;;;;10.27;7.63;;;20.10;99.30;;;;;;4975691;28;20066;-65
2023/09/16 02:56:25;;;;;;;10.80;7.65;;;20.10;99.30;;;;;;4975962;28;20042;-67
2023/09/16 02:58:53;;;;;;;8.07;6.43;;;20.10;99.30;;;;;;4975881;28;20085;-67
2023/09/16 03:01:18;;;;;;;11.07;7.57;;;20.10;99.40;;;;;;4975812;28;20015;-75
2023/09/16 03:03:44;;;;;;;10.98;7.18;;;20.00;99.40;;;;;;4975857;28;20388;-72
2023/09/16 03:06:09;;;;;;;11.73;7.60;;;20.00;99.40;;;;;;4975707;28;20077;-67
2023/09/16 03:08:35;;;;;;;9.60;8.32;;;20.00;99.40;;;;;;4975426;28;20452;-74
2023/09/16 03:11:05;;;;;;;8.98;7.55;;;20.00;99.40;;;;;;4975942;28;20023;-66
2023/09/16 03:13:30;;;;;;;8.82;7.70;;;20.00;99.40;;;;;;4975545;28;20034;-71
2023/09/16 03:16:13;;;;;;;10.00;7.88;;;20.00;99.40;;;;;;4975544;28;20026;-66
2023/09/16 03:18:39;;;;;;;11.98;7.43;;;20.00;99.40;;;;;;4975795;28;20058;-75
2023/09/16 03:21:04;;;;;;;11.10;8.38;;;20.00;99.40;;;;;;4975033;28;20066;-66
2023/09/16 03:23:30;;;;;;;9.88;8.10;;;20.00;99.40;;;;;;4975326;28;20030;-68
2023/09/16 03:25:55;;;;;;;9.07;8.18;;;20.00;99.40;;;;;;4975359;28;20461;-71
2023/09/16 03:28:21;;;;;;;8.57;7.75;;;19.90;99.40;;;;;;4975381;28;20038;-66
2023/09/16 03:30:47;;;;;;;9.30;8.23;;;19.90;99.40;;;;;;4975373;28;20404;-66
2023/09/16 03:33:12;;;;;;;9.57;7.97;;;19.90;99.40;;;;;;4975154;28;20027;-75
2023/09/16 03:35:38;;;;;;;11.63;9.20;;;19.80;99.40;;;;;;4975012;28;20023;-75
2023/09/16 03:38:04;;;;;;;9.63;8.32;;;19.80;99.50;;;;;;4975162;28;20125;-75
2023/09/16 03:40:30;;;;;;;11.43;8.57;;;19.80;99.50;;;;;;4974932;28;20019;-68
2023/09/16 03:42:56;;;;;;;11.18;9.15;;;19.90;99.50;;;;;;4975032;28;20070;-66
2023/09/16 03:45:21;;;;;;;9.25;8.35;;;19.80;99.50;;;;;;4975033;28;20030;-66
2023/09/16 03:47:47;;;;;;;9.88;8.88;;;19.80;99.60;;;;;;4974967;28;20362;-69
2023/09/16 03:50:12;;;;;;;9.63;8.68;;;19.70;99.70;;;;;;4974656;28;20125;-75
2023/09/16 03:52:38;;;;;;;9.98;8.73;;;19.80;99.70;;;;;;4973522;28;20027;-68
2023/09/16 03:55:04;;;;;;;9.10;8.30;;;19.80;99.80;;;;;;4974829;28;20065;-74
2023/09/16 03:57:30;;;;;;;9.95;9.05;;;19.80;99.50;;;;;;4974973;28;20022;-75
2023/09/16 03:59:56;;;;;;;10.07;8.15;;;19.80;99.50;;;;;;4974785;28;20022;-75
2023/09/16 04:02:21;;;;;;;10.50;9.25;;;19.80;99.40;;;;;;4973415;28;20033;-69
2023/09/16 04:04:47;;;;;;;10.38;9.27;;;19.80;99.50;;;;;;4974533;28;20061;-75
2023/09/16 04:07:12;;;;;;;9.68;8.77;;;19.80;99.40;;;;;;4974737;28;20047;-66
2023/09/16 04:09:38;;;;;;;10.10;8.20;;;19.70;99.40;;;;;;4974623;28;20486;-67
2023/09/16 04:12:04;;;;;;;9.93;8.90;;;19.70;99.50;;;;;;4974810;28;20033;-74
2023/09/16 04:14:29;;;;;;;10.52;9.40;;;19.70;99.40;;;;;;4974573;28;20101;-71
2023/09/16 04:16:55;;;;;;;9.98;8.95;;;19.70;99.40;;;;;;4974643;28;20531;-74
2023/09/16 04:19:20;;;;;;;12.98;9.07;;;19.70;99.50;;;;;;4974086;28;20031;-73
2023/09/16 04:21:46;;;;;;;9.55;8.48;;;19.60;99.50;;;;;;4974578;28;20039;-67
2023/09/16 04:24:12;;;;;;;11.18;9.43;;;19.60;99.60;;;;;;4974324;28;20468;-74
2023/09/16 04:26:38;;;;;;;10.98;8.93;;;19.60;99.60;;;;;;4974518;28;20041;-74
2023/09/16 04:29:03;;;;;;;11.00;9.02;;;19.60;99.60;;;;;;4974402;28;20454;-68
2023/09/16 04:31:32;;;;;;;9.40;8.45;;;19.60;99.60;;;;;;4973120;28;20077;-66
2023/09/16 04:33:57;;;;;;;10.77;9.68;;;19.60;99.70;;;;;;4974096;28;20558;-73
2023/09/16 04:36:23;;;;;;;13.32;9.07;;;19.50;99.70;;;;;;4974345;28;20023;-67
2023/09/16 04:38:49;;;;;;;10.70;9.52;;;19.50;99.70;;;;;;4974455;28;20104;-67
2023/09/16 04:41:15;;;;;;;12.48;9.60;;;19.50;99.70;;;;;;4974388;28;20019;-75
2023/09/16 04:43:43;;;;;;;10.60;9.50;;;19.50;99.70;;;;;;4974275;28;20055;-74
2023/09/16 04:46:08;;;;;;;11.73;10.05;;;19.50;99.70;;;;;;4974355;28;20033;-66
2023/09/16 04:48:34;;;;;;;12.15;9.55;;;19.50;99.70;;;;;;4973866;28;20117;-67
2023/09/16 04:51:00;;;;;;;12.02;9.88;;;19.50;99.70;;;;;;4974532;28;20077;-66
2023/09/16 04:53:25;;;;;;;11.18;9.90;;;19.50;99.80;;;;;;4978288;28;20514;-67
2023/09/16 04:56:00;;;;;;;10.88;8.82;;;19.50;99.80;;;;;;4978043;28;20031;-65
2023/09/16 04:58:26;;;;;;;10.70;9.70;;;19.50;99.80;;;;;;4978131;28;20026;-68
2023/09/16 05:00:51;;;;;;;11.95;10.10;;;19.40;99.80;;;;;;4977960;28;20026;-66
2023/09/16 05:03:18;;;;;;;16.63;11.20;;;19.40;99.80;;;;;;4977716;28;20027;-75
2023/09/16 05:05:46;;;;;;;14.40;9.93;;;19.40;99.80;;;;;;4977619;28;20086;-72
2023/09/16 05:08:12;;;;;;;12.18;10.15;;;19.40;99.80;;;;;;4977768;28;20042;-67
2023/09/16 05:10:37;;;;;;;12.27;10.40;;;19.40;99.80;;;;;;4977991;28;20085;-75
2023/09/16 05:13:03;;;;;;;12.35;9.93;;;19.30;99.80;;;;;;4977888;28;20023;-74
2023/09/16 05:15:29;;;;;;;12.00;10.70;;;19.40;99.80;;;;;;4977843;28;20425;-76
2023/09/16 05:17:54;;;;;;;13.73;10.68;;;19.30;99.80;;;;;;4977419;28;20153;-74
2023/09/16 05:20:20;;;;;;;14.50;11.35;;;19.30;99.80;;;;;;4977294;28;20059;-71
2023/09/16 05:22:49;;;;;;;13.75;10.80;;;19.40;99.80;;;;;;4977758;28;20042;-75
2023/09/16 05:25:15;;;;;;;12.15;10.68;;;19.30;99.90;;;;;;4977649;28;20030;-75
2023/09/16 05:27:41;;;;;;;11.73;10.50;;;19.30;99.90;;;;;;4977483;28;20035;-74
2023/09/16 05:30:07;;;;;;;12.15;10.70;;;19.30;99.90;;;;;;4977430;28;20034;-67
2023/09/16 05:32:33;;;;;;;12.50;11.07;;;19.20;99.90;;;;;;4977217;28;20022;-72
2023/09/16 05:34:59;;;;;;;14.55;11.00;;;19.20;99.90;;;;;;4977359;28;20081;-67
2023/09/16 05:37:24;;;;;;;12.05;10.82;;;19.20;99.90;;;;;;4977474;28;20054;-75
2023/09/16 05:39:50;;;;;;;13.25;11.65;;;19.20;99.90;;;;;;4977314;28;20377;-75
2023/09/16 05:42:15;;;;;;;14.05;10.63;;;19.20;99.90;;;;;;4977276;28;20031;-66
2023/09/16 05:44:41;;;;;;;11.73;10.55;;;19.20;99.90;;;;;;4977198;28;20027;-65
2023/09/16 05:47:06;;;;;;;13.95;11.25;;;19.20;99.90;;;;;;4976998;28;20026;-75
2023/09/16 05:49:32;;;;;;;14.10;11.45;;;19.20;99.90;;;;;;4977302;28;20081;-66
2023/09/16 05:51:58;;;;;;;14.98;11.88;;;19.20;99.90;;;;;;4976972;28;20031;-74
2023/09/16 05:54:26;;;;;;;13.18;11.73;;;19.20;99.90;;;;;;4977137;28;20027;-75
2023/09/16 05:56:52;;;;;;;12.60;11.38;;;19.20;99.90;;;;;;4976875;28;20503;-74
2023/09/16 05:59:17;;;;;;;13.50;10.70;;;19.20;99.90;;;;;;4977264;28;20050;-67
2023/09/16 06:01:43;;;;;;;13.27;11.63;;;19.20;99.90;;;;;;4976830;28;20386;-75
2023/09/16 06:04:08;;;;;;;15.40;11.32;;;19.20;99.90;;;;;;4976934;28;20042;-71
2023/09/16 06:06:35;;;;;;;13.30;11.90;;;19.20;99.90;;;;;;4976660;28;20030;-65
2023/09/16 06:09:03;;;;;;;13.90;12.45;;;19.20;99.90;;;;;;4976976;28;20110;-75
2023/09/16 06:11:28;;;;;;;13.27;12.00;;;19.20;99.90;;;;;;4976724;28;20063;-73
2023/09/16 06:13:55;;;;;;;13.68;12.35;;;19.20;99.90;;;;;;4976778;28;20057;-69
2023/09/16 06:16:20;;;;;;;13.35;12.07;;;19.30;99.90;;;;;;4976389;28;20018;-75
2023/09/16 06:18:46;;;;;;;12.80;11.48;;;19.30;99.90;;;;;;4976665;28;20027;-75
2023/09/16 06:21:12;;;;;;;13.40;11.98;;;19.30;99.90;;;;;;4976855;28;20134;-65
2023/09/16 06:23:37;;;;;;;13.60;12.27;;;19.30;99.90;;;;;;4976566;28;20038;-75
2023/09/16 06:26:03;;;;;;;13.00;11.65;;;19.30;99.90;;;;;;4976440;28;20031;-66
2023/09/16 06:28:29;;;;;;;12.88;11.57;;;19.40;99.90;;;;;;4974262;28;20035;-74
2023/09/16 06:30:55;;;;;;;12.52;11.25;;;19.30;99.90;;;;;;4993540;28;20026;-69
2023/09/16 06:33:20;;;;;;;14.13;11.75;;;19.30;99.90;;;;;;4993008;28;20436;-64
2023/09/16 06:35:46;;;;;;;13.40;11.90;;;19.30;99.90;;;;;;4975271;28;20025;-67
2023/09/16 06:38:12;;;;;;;14.48;11.65;;;19.30;99.90;;;;;;4976065;28;20110;-70
2023/09/16 06:40:38;;;;;;;13.52;10.95;;;19.40;99.90;;;;;;4973740;28;20472;-66
2023/09/16 06:43:03;;;;;;;14.15;10.00;;;19.40;99.90;;;;;;4974462;28;20118;-67
2023/09/16 06:45:29;;;;;;;12.13;10.95;;;19.40;99.90;;;;;;4971366;28;20102;-64
2023/09/16 06:47:58;;;;;;;14.90;11.43;;;19.50;99.90;;;;;;4972771;28;20038;-66
2023/09/16 06:50:23;;;;;;;12.55;10.05;;;19.40;99.90;;;;;;4971553;28;20089;-71
2023/09/16 06:52:54;;;;;;;12.25;11.00;;;19.50;99.90;;;;;;4970270;28;20046;-67
2023/09/16 06:55:20;;;;;;;15.27;11.43;;;19.50;99.90;;;;;;4971574;28;20019;-70
2023/09/16 06:57:46;;;;;;;34.78;11.10;;;19.60;99.90;;;;;;4975963;28;20455;-67
2023/09/16 07:00:13;;;;;;;16.52;10.80;;;19.60;99.80;;;;;;4973976;28;20030;-66
2023/09/16 07:02:39;;;;;;;12.80;10.70;;;19.60;99.90;;;;;;4975780;28;20034;-68
2023/09/16 07:05:05;;;;;;;13.63;10.20;;;19.60;99.90;;;;;;4980244;28;20475;-64
2023/09/16 07:07:30;;;;;;;13.38;11.00;;;19.70;99.90;;;;;;4973544;28;20078;-68
2023/09/16 07:09:56;;;;;;;11.05;9.60;;;19.70;99.90;;;;;;4972907;28;20468;-72
2023/09/16 07:12:24;;;;;;;12.48;9.93;;;19.80;99.90;;;;;;4973230;28;20473;-64
2023/09/16 07:14:50;;;;;;;16.23;10.15;;;19.80;99.90;;;;;;4973112;28;20086;-64
2023/09/16 07:17:16;;;;;;;14.07;9.65;;;19.80;99.90;;;;;;4969887;28;20042;-71
2023/09/16 07:19:42;;;;;;;14.48;11.07;;;19.90;99.90;;;;;;4970027;28;20456;-71
2023/09/16 07:22:08;;;;;;;14.07;10.85;;;19.90;99.90;;;;;;4975143;28;20083;-68
2023/09/16 07:24:34;;;;;;;12.10;9.80;;;20.00;99.90;;;;;;4973737;28;20061;-66
2023/09/16 07:26:59;;;;;;;12.77;10.80;;;20.00;99.90;;;;;;4973023;28;20042;-65
2023/09/16 07:29:26;;;;;;;14.85;10.10;;;20.00;99.90;;;;;;4972695;28;20396;-67
2023/09/16 07:31:52;;;;;;;13.60;10.77;;;20.10;99.90;;;;;;4972493;28;20027;-65
2023/09/16 07:34:20;;;;;;;15.35;11.23;;;20.10;99.90;;;;;;4974895;28;20094;-68
2023/09/16 07:36:46;;;;;;;12.98;10.77;;;20.20;99.90;;;;;;4985354;28;20021;-68
2023/09/16 07:39:12;;;;;;;12.68;10.38;;;20.20;99.90;;;;;;4986136;28;20031;-68
2023/09/16 07:41:38;;;;;;;16.00;11.63;;;20.20;99.90;;;;;;4971155;28;20116;-69
2023/09/16 07:44:04;;;;;;;11.25;10.05;;;20.20;99.90;;;;;;4963863;28;20022;-70
2023/09/16 07:46:30;;;;;;;13.93;9.63;;;20.20;99.90;;;;;;4974313;28;20030;-64
2023/09/16 07:48:55;;;;;;;11.82;9.27;;;20.30;99.90;;;;;;4961761;28;20043;-67
2023/09/16 07:51:21;;;;;;;13.63;9.55;;;20.30;99.90;;;;;;4972916;28;20033;-73
2023/09/16 07:53:47;;;;;;;12.75;10.00;;;20.30;99.90;;;;;;4973627;28;20035;-65
2023/09/16 07:56:16;;;;;;;12.93;9.40;;;20.40;99.90;;;;;;4959768;28;20029;-73
2023/09/16 07:58:41;;;;;;;11.25;10.15;;;20.40;99.80;;;;;;4966127;28;20038;-73
2023/09/16 08:01:07;;;;;;;11.57;8.93;;;20.50;99.90;;;;;;4973399;28;20027;-73
2023/09/16 08:03:32;;;;;;;12.27;8.35;;;20.50;99.90;;;;;;4971643;28;20023;-66
2023/09/16 08:05:59;;;;;;;10.98;9.20;;;20.50;99.90;;;;;;4973503;28;20027;-74
2023/09/16 08:08:24;;;;;;;9.20;8.30;;;20.50;99.90;;;;;;4973402;28;20061;-70
2023/09/16 08:10:51;;;;;;;8.95;8.00;;;20.60;99.90;;;;;;4971061;28;20480;-73
2023/09/16 08:13:18;;;;;;;12.55;8.93;;;20.60;99.80;;;;;;4975887;28;20031;-72
2023/09/16 08:15:43;;;;;;;13.32;8.93;;;20.60;99.60;;;;;;4973121;28;20031;-73
2023/09/16 08:18:09;;;;;;;12.05;8.48;;;20.70;99.70;;;;;;4971104;28;20041;-72
2023/09/16 08:20:34;;;;;;;10.57;7.55;;;20.70;99.90;;;;;;4975153;28;20042;-71
2023/09/16 08:23:00;;;;;;;9.95;8.13;;;20.70;99.90;;;;;;4971826;28;20109;-72
2023/09/16 08:25:26;;;;;;;8.55;7.13;;;20.80;99.90;;;;;;4969761;28;20035;-73
2023/09/16 08:27:52;;;;;;;9.57;7.40;;;20.80;99.90;;;;;;4973532;28;20425;-68
2023/09/16 08:30:18;;;;;;;10.50;7.65;;;20.80;99.80;;;;;;4972711;28;20252;-65
2023/09/16 08:32:44;;;;;;;13.88;8.60;;;20.80;99.70;;;;;;4970845;28;20023;-63
2023/09/16 08:35:09;;;;;;;8.43;7.53;;;20.90;99.80;;;;;;4975066;28;20037;-74
2023/09/16 08:37:35;;;;;;;7.60;6.78;;;20.80;99.90;;;;;;4970728;28;20039;-66
2023/09/16 08:40:02;;;;;;;9.15;6.68;;;20.90;99.90;;;;;;4971717;28;20095;-65
2023/09/16 08:42:39;;;;;;;9.85;7.32;;;20.90;99.60;;;;;;4973028;28;20134;-64
2023/09/16 08:45:10;;;;;;;8.30;7.13;;;21.00;99.70;;;;;;4969804;28;20018;-75
2023/09/16 08:47:52;;;;;;;8.88;7.00;;;21.00;99.70;;;;;;4973285;28;20127;-77
2023/09/16 08:50:20;;;;;;;;;;;21.00;99.80;;;;;;4971980;28;20023;-75
2023/09/16 08:52:59;;;;;;;9.27;6.60;;;21.10;99.80;;;;;;4965298;28;19922;-66
2023/09/16 08:55:25;;;;;;;9.50;6.85;;;21.10;99.90;;;;;;4974669;28;20015;-76
2023/09/16 08:58:19;;;;;;;8.32;7.50;;;21.10;99.80;;;;;;4965372;28;20369;-71
2023/09/16 09:00:45;;;;;;;8.50;7.30;;;21.10;99.70;;;;;;4964986;28;20034;-72
2023/09/16 09:03:11;;;;;;;8.27;7.43;;;21.20;99.80;;;;;;4968706;28;20037;-67
2023/09/16 09:05:38;;;;;;;8.88;7.70;;;21.20;99.70;;;;;;4968956;28;20066;-65
2023/09/16 09:08:08;;;;;;;10.05;7.38;;;21.20;99.70;;;;;;4964928;28;20043;-69
2023/09/16 09:10:38;;;;;;;11.85;7.10;;;21.20;99.70;;;;;;4968157;28;20436;-71
2023/09/16 09:13:12;;;;;;;9.77;7.43;;;21.20;99.90;;;;;;4967703;28;20041;-71
2023/09/16 09:15:41;;;;;;;9.68;7.55;;;21.30;99.90;;;;;;4973366;28;20179;-74
2023/09/16 09:18:08;;;;;;;8.27;7.20;;;21.30;99.90;;;;;;4971223;28;20106;-71
2023/09/16 09:20:34;;;;;;;11.30;7.43;;;21.30;99.90;;;;;;4968877;28;20585;-75
2023/09/16 09:23:01;;;;;;;8.77;6.68;;;21.30;99.80;;;;;;4966358;28;20030;-72
2023/09/16 09:25:27;;;;;;;8.40;7.05;;;21.30;99.70;;;;;;4970761;28;20014;-75
2023/09/16 09:27:57;;;;;;;7.93;6.68;;;21.30;99.70;;;;;;4971065;28;20114;-71
2023/09/16 09:30:27;;;;;;;8.30;6.55;;;21.40;99.60;;;;;;4970555;28;20479;-66
2023/09/16 09:32:57;;;;;;;7.55;6.63;;;21.40;99.40;;;;;;4972932;28;20037;-67
2023/09/16 09:35:27;;;;;;;8.02;6.35;;;21.40;99.20;;;;;;4974856;28;20023;-68
2023/09/16 09:37:54;;;;;;;6.97;6.18;;;21.40;99.10;;;;;;4971015;28;21320;-67
2023/09/16 09:40:23;;;;;;;6.55;5.95;;;21.50;99.10;;;;;;4980042;28;20045;-65
2023/09/16 09:42:56;;;;;;;10.00;6.50;;;21.50;99.20;;;;;;4973196;28;20031;-71
2023/09/16 09:45:25;;;;;;;6.13;4.95;;;21.60;99.20;;;;;;4974067;28;20050;-66
2023/09/16 09:47:52;;;;;;;7.72;6.30;;;21.60;99.30;;;;;;4971063;28;20045;-75
2023/09/16 09:50:20;;;;;;;6.88;5.97;;;21.50;99.30;;;;;;4977049;28;20492;-74
2023/09/16 09:52:52;;;;;;;11.73;6.82;;;21.60;99.10;;;;;;4971677;28;20515;-77
2023/09/16 09:55:20;;;;;;;8.27;5.40;;;21.60;98.90;;;;;;4975162;28;20452;-71
2023/09/16 09:57:48;;;;;;;6.97;6.18;;;21.70;98.60;;;;;;4973809;28;20046;-74
2023/09/16 10:00:19;;;;;;;8.23;7.45;;;21.70;98.80;;;;;;4974428;28;20023;-70
2023/09/16 10:02:47;;;;;;;8.93;6.70;;;21.70;99.10;;;;;;4977930;28;20034;-75
2023/09/16 10:05:15;;;;;;;8.05;6.72;;;21.70;99.60;;;;;;4976155;28;20395;-73
2023/09/16 10:07:44;;;;;;;10.02;6.70;;;21.70;99.10;;;;;;4971675;28;20110;-73
2023/09/16 10:10:30;;;;;;;6.53;5.90;;;21.80;99.10;;;;;;4977024;28;20030;-69
2023/09/16 10:12:57;;;;;;;8.65;7.13;;;21.80;99.30;;;;;;4968662;28;20030;-68
2023/09/16 10:15:28;;;;;;;7.93;6.70;;;21.80;99.20;;;;;;4972143;28;20051;-70
2023/09/16 10:17:56;;;;;;;11.25;6.35;;;21.80;99.30;;;;;;4967149;28;20502;-77
2023/09/16 10:20:22;;;;;;;10.90;5.95;;;21.90;99.00;;;;;;4962189;28;20034;-75
2023/09/16 10:22:49;;;;;;;6.90;4.97;;;21.90;98.90;;;;;;4961482;28;20426;-77
2023/09/16 10:25:17;;;;;;;6.10;5.18;;;21.90;99.00;;;;;;4958258;28;20478;-68
2023/09/16 10:27:58;;;;;;;10.02;4.68;;;21.90;99.10;;;;;;4970757;28;20053;-76
2023/09/16 10:30:25;;;;;;;5.95;4.97;;;21.90;99.20;;;;;;4971240;28;20060;-73
2023/09/16 10:32:52;;;;;;;8.38;4.80;;;21.90;99.00;;;;;;4971196;28;20030;-69
2023/09/16 10:35:19;;;;;;;8.25;5.03;;;21.90;98.90;;;;;;4982734;28;20082;-76
2023/09/16 10:37:46;;;;;;;5.50;4.47;;;22.00;98.70;;;;;;4973003;28;20225;-77
2023/09/16 10:40:13;;;;;;;7.13;5.10;;;22.00;98.50;;;;;;4976323;28;20030;-73
2023/09/16 10:42:41;;;;;;;6.85;4.38;;;22.00;98.30;;;;;;4975085;28;20038;-76
2023/09/16 10:45:11;;;;;;;10.45;5.38;;;22.00;98.40;;;;;;4973668;28;20074;-66
2023/09/16 10:47:37;;;;;;;7.15;4.78;;;22.00;98.30;;;;;;4972213;28;20034;-73
2023/09/16 10:50:02;;;;;;;7.18;4.97;;;22.10;98.50;;;;;;4965765;28;20024;-71
2023/09/16 10:52:49;;;;;;;6.15;4.68;;;22.10;98.50;;;;;;4969992;28;20101;-76
2023/09/16 10:55:35;;;;;;;5.63;4.45;;;22.10;98.60;;;;;;4971028;28;20038;-70
2023/09/16 10:58:03;;;;;;;5.97;4.55;;;22.10;98.60;;;;;;4970668;28;20564;-75
2023/09/16 11:00:37;;;;;;;4.95;4.45;;;22.10;98.60;;;;;;4965904;28;20027;-66
2023/09/16 11:03:05;;;;;;;6.72;3.85;;;22.10;98.50;;;;;;4975836;28;20027;-69
2023/09/16 11:05:32;;;;;;;8.55;4.07;;;22.10;98.40;;;;;;4972693;28;20042;-73
2023/09/16 11:07:58;;;;;;;4.82;3.85;;;22.20;98.00;;;;;;4972751;28;20045;-73
2023/09/16 11:10:25;;;;;;;5.13;3.30;;;22.20;98.00;;;;;;4973538;28;20023;-66
2023/09/16 11:12:52;;;;;;;5.72;3.78;;;22.20;97.90;;;;;;4970468;28;20158;-66
2023/09/16 11:15:18;;;;;;;3.85;3.33;;;22.20;97.90;;;;;;4973240;28;20063;-70
2023/09/16 11:17:44;;;;;;;4.97;3.38;;;22.30;97.90;;;;;;4977604;28;20026;-67
2023/09/16 11:20:30;;;;;;;5.25;3.65;;;22.30;97.90;;;;;;4968004;28;20035;-67
2023/09/16 11:22:57;;;;;;;6.38;3.67;;;22.30;98.10;;;;;;4952109;28;20031;-74
2023/09/16 11:25:22;;;;;;;4.20;3.20;;;22.30;98.30;;;;;;4956645;28;20370;-66
2023/09/16 11:27:50;;;;;;;7.13;3.50;;;22.30;98.30;;;;;;4959185;28;20041;-73
2023/09/16 11:30:16;;;;;;;4.30;3.90;;;22.30;98.50;;;;;;4953410;29;20388;-76
2023/09/16 11:33:04;;;;;;;6.65;3.97;;;22.30;98.50;;;;;;4961034;28;20027;-69
2023/09/16 11:35:31;;;;;;;4.70;4.25;;;22.30;98.40;;;;;;4932850;28;20472;-76
2023/09/16 11:37:57;;;;;;;4.75;3.83;;;22.30;98.30;;;;;;4960798;28;20113;-65
2023/09/16 11:40:31;;;;;;;5.85;3.80;;;22.30;98.30;;;;;;4971840;28;20083;-65
2023/09/16 11:42:58;;;;;;;5.28;4.45;;;22.30;98.30;;;;;;4949670;28;20114;-65
2023/09/16 11:45:25;;;;;;;9.98;3.97;;;22.40;98.30;;;;;;4954537;28;20019;-76
2023/09/16 11:47:51;;;;;;;5.07;3.63;;;22.40;98.40;;;;;;4962349;28;20504;-66
2023/09/16 11:50:21;;;;;;;5.72;4.78;;;22.40;98.50;;;;;;4953484;28;20122;-69
2023/09/16 11:52:46;;;;;;;7.85;5.07;;;22.50;98.50;;;;;;4952753;28;20043;-67
2023/09/16 11:55:13;;;;;;;6.63;4.88;;;22.50;98.40;;;;;;4954989;28;20038;-67
2023/09/16 11:57:39;;;;;;;5.53;4.13;;;22.50;98.50;;;;;;4964348;28;20117;-67
2023/09/16 12:00:07;;;;;;;4.18;3.45;;;22.50;98.50;;;;;;4949649;28;20445;-72
2023/09/16 12:02:33;;;;;;;5.90;3.70;;;22.50;98.70;;;;;;4951221;29;20089;-76
2023/09/16 12:05:02;;;;;;;7.00;4.22;;;22.50;98.50;;;;;;4949654;29;20042;-75
2023/09/16 12:07:30;;;;;;;7.78;3.75;;;22.50;98.30;;;;;;4974148;28;20093;-67
2023/09/16 12:09:58;;;;;;;6.63;3.88;;;22.60;98.50;;;;;;4974664;28;20015;-66
2023/09/16 12:12:25;;;;;;;6.05;3.55;;;22.60;98.60;;;;;;4959481;28;20374;-67
2023/09/16 12:14:54;;;;;;;7.15;3.70;;;22.50;98.60;;;;;;4955095;28;20027;-76
2023/09/16 12:17:19;;;;;;;9.57;4.60;;;22.60;98.70;;;;;;4949777;29;20369;-75
2023/09/16 12:19:49;;;;;;;6.40;4.18;;;22.60;98.20;;;;;;4969059;28;20034;-67
2023/09/16 12:22:16;;;;;;;6.03;4.10;;;22.70;98.20;;;;;;4961853;28;20118;-71
2023/09/16 12:24:42;;;;;;;6.50;4.70;;;22.70;98.40;;;;;;4955171;29;20102;-67
2023/09/16 12:27:07;;;;;;;6.85;4.55;;;22.70;98.20;;;;;;4954140;29;20162;-66
2023/09/16 12:29:33;;;;;;;4.55;3.85;;;22.70;98.20;;;;;;4953894;29;20062;-66
2023/09/16 12:32:13;;;;;;;5.55;4.10;;;22.70;98.10;;;;;;4953634;29;20031;-77
2023/09/16 12:34:39;;;;;;;5.22;3.22;;;22.70;98.20;;;;;;4954575;29;20540;-67
2023/09/16 12:37:05;;;;;;;5.90;4.00;;;22.70;98.40;;;;;;4952381;28;20275;-69
2023/09/16 12:39:33;;;;;;;4.18;3.85;;;22.70;98.60;;;;;;4960013;28;20042;-68
2023/09/16 12:42:04;;;;;;;7.03;3.60;;;22.80;98.50;;;;;;4958817;28;20032;-66